Time;durP1;ratioP1;P1;durP2;ratioP2;P2;SDS_P1;SDS_P2;PMS_P1;PMS_P2;Temp;Humidity;BMP_temperature;BMP_pressure;BME280_temperature;BME280_humidity;BME280_pressure;Samples;Min_cycle;Max_cycle;Signal;HPM_P1;HPM_P2
2023/08/27 00:00:16;;;;;;;;;;;24.40;63.80;;;;;;5072765;28;19909;-56
2023/08/27 00:02:41;;;;;;;;;;;24.50;63.80;;;;;;5072817;28;19962;-56
2023/08/27 00:05:10;;;;;;;;;;;24.50;63.80;;;;;;5082172;28;20368;-54
2023/08/27 00:07:36;;;;;;;;;;;24.50;63.70;;;;;;5092995;28;19915;-56
2023/08/27 00:10:03;;;;;;;;;;;24.50;64.60;;;;;;5091048;28;19923;-56
2023/08/27 00:12:29;;;;;;;;;;;24.50;63.70;;;;;;5092865;28;19913;-56
2023/08/27 00:14:54;;;;;;;;;;;24.50;63.70;;;;;;5092761;28;19908;-56
2023/08/27 00:17:20;;;;;;;;;;;24.50;63.80;;;;;;5090139;28;20376;-56
2023/08/27 00:19:45;;;;;;;;;;;24.50;63.80;;;;;;5093088;28;20265;-56
2023/08/27 00:22:10;;;;;;;;;;;24.40;63.70;;;;;;5092762;28;19978;-56
2023/08/27 00:24:36;;;;;;;;;;;24.40;63.80;;;;;;5087701;28;19920;-56
2023/08/27 00:27:03;;;;;;;;;;;24.40;63.80;;;;;;5072655;28;19944;-56
2023/08/27 00:29:29;;;;;;;;;;;24.50;63.80;;;;;;5072586;28;20384;-55
2023/08/27 00:31:54;;;;;;;;;;;24.40;63.70;;;;;;5072492;28;19909;-56
2023/08/27 00:34:19;;;;;;;;;;;24.40;63.70;;;;;;5072942;28;19915;-56
2023/08/27 00:36:45;;;;;;;;;;;24.40;63.80;;;;;;5092767;28;19908;-56
2023/08/27 00:39:10;;;;;;;;;;;24.40;63.70;;;;;;5085490;28;19916;-56
2023/08/27 00:41:36;;;;;;;;;;;24.40;63.70;;;;;;5072489;28;19965;-56
2023/08/27 00:44:01;;;;;;;;;;;24.40;63.80;;;;;;5072442;28;19909;-54
2023/08/27 00:46:27;;;;;;;;;;;24.40;63.80;;;;;;5072343;28;19954;-55
2023/08/27 00:48:52;;;;;;;;;;;24.40;63.80;;;;;;5070286;28;19920;-56
2023/08/27 00:51:18;;;;;;;;;;;24.40;63.80;;;;;;5089667;28;19927;-56
2023/08/27 00:53:43;;;;;;;;;;;24.40;63.80;;;;;;5093543;28;19916;-56
2023/08/27 00:56:08;;;;;;;;;;;24.40;63.70;;;;;;5078082;28;19961;-55
2023/08/27 00:58:34;;;;;;;;;;;24.40;63.80;;;;;;5076110;28;19958;-56
2023/08/27 01:00:59;;;;;;;;;;;24.40;63.80;;;;;;5092236;28;19908;-57
2023/08/27 01:03:25;;;;;;;;;;;24.40;63.80;;;;;;5096271;28;20393;-56
2023/08/27 01:05:51;;;;;;;;;;;24.30;63.60;;;;;;5094840;28;19962;-56
2023/08/27 01:08:20;;;;;;;;;;;24.40;63.80;;;;;;5096224;28;19908;-56
2023/08/27 01:10:46;;;;;;;;;;;24.30;63.70;;;;;;5092957;28;20433;-57
2023/08/27 01:13:16;;;;;;;;;;;24.30;63.60;;;;;;5095076;28;19916;-56
2023/08/27 01:15:42;;;;;;;;;;;24.30;63.70;;;;;;5094714;28;19908;-56
2023/08/27 01:18:07;;;;;;;;;;;24.30;63.60;;;;;;5095904;28;19973;-56
2023/08/27 01:20:33;;;;;;;;;;;24.30;63.60;;;;;;5093382;28;19908;-56
2023/08/27 01:22:58;;;;;;;;;;;24.30;63.70;;;;;;5095827;28;19916;-56
2023/08/27 01:25:25;;;;;;;;;;;24.30;63.70;;;;;;5084468;28;19908;-56
2023/08/27 01:27:54;;;;;;;;;;;24.30;63.70;;;;;;5075532;28;19913;-56
2023/08/27 01:30:23;;;;;;;;;;;24.30;63.80;;;;;;5074083;28;19912;-55
2023/08/27 01:32:49;;;;;;;;;;;24.30;63.80;;;;;;5086757;28;20387;-56
2023/08/27 01:35:15;;;;;;;;;;;24.30;63.80;;;;;;5094476;28;19997;-56
2023/08/27 01:37:40;;;;;;;;;;;24.30;63.80;;;;;;5094295;28;20306;-56
2023/08/27 01:40:06;;;;;;;;;;;24.30;63.80;;;;;;5091811;28;19914;-56
2023/08/27 01:42:32;;;;;;;;;;;24.30;63.80;;;;;;5095646;28;19934;-55
2023/08/27 01:44:58;;;;;;;;;;;24.30;63.70;;;;;;5095335;28;19919;-56
2023/08/27 01:47:24;;;;;;;;;;;24.30;63.70;;;;;;5094209;28;20356;-55
2023/08/27 01:49:49;;;;;;;;;;;24.30;63.70;;;;;;5093615;28;19920;-55
2023/08/27 01:52:15;;;;;;;;;;;24.30;63.80;;;;;;5095245;28;19952;-56
2023/08/27 01:54:40;;;;;;;;;;;24.20;63.60;;;;;;5092367;28;19920;-56
2023/08/27 01:57:06;;;;;;;;;;;24.20;63.60;;;;;;5091627;28;20007;-56
2023/08/27 01:59:32;;;;;;;;;;;24.20;63.60;;;;;;5095258;28;19961;-56
2023/08/27 02:01:57;;;;;;;;;;;24.20;63.70;;;;;;5093710;28;19917;-56
2023/08/27 02:04:23;;;;;;;;;;;24.20;63.60;;;;;;5094817;28;20394;-56
2023/08/27 02:06:48;;;;;;;;;;;24.20;64.40;;;;;;5095038;28;19912;-56
2023/08/27 02:09:15;;;;;;;;;;;24.20;63.70;;;;;;5094898;28;19947;-56
2023/08/27 02:11:41;;;;;;;;;;;24.20;63.80;;;;;;5092558;28;19912;-56
2023/08/27 02:14:06;;;;;;;;;;;24.20;63.80;;;;;;5094791;28;19919;-56
2023/08/27 02:16:33;;;;;;;;;;;24.20;63.80;;;;;;5095023;28;20001;-56
2023/08/27 02:18:58;;;;;;;;;;;24.20;63.80;;;;;;5093504;28;19915;-56
2023/08/27 02:21:24;;;;;;;;;;;24.20;63.80;;;;;;5091855;28;19908;-56
2023/08/27 02:23:50;;;;;;;;;;;24.10;63.70;;;;;;5094740;28;19912;-56
2023/08/27 02:26:15;;;;;;;;;;;24.10;63.60;;;;;;5083433;28;19961;-57
2023/08/27 02:28:41;;;;;;;;;;;24.20;63.70;;;;;;5094564;28;20364;-55
2023/08/27 02:31:08;;;;;;;;;;;24.20;63.60;;;;;;5094375;28;20427;-56
2023/08/27 02:33:33;;;;;;;;;;;24.10;63.50;;;;;;5081536;28;19915;-55
2023/08/27 02:35:59;;;;;;;;;;;24.10;63.50;;;;;;5074136;28;19913;-56
2023/08/27 02:38:24;;;;;;;;;;;24.10;63.50;;;;;;5074096;28;19908;-56
2023/08/27 02:40:50;;;;;;;;;;;24.10;63.50;;;;;;5073608;28;19952;-56
2023/08/27 02:43:15;;;;;;;;;;;24.10;63.60;;;;;;5093312;28;19916;-56
2023/08/27 02:45:41;;;;;;;;;;;24.10;63.50;;;;;;5094382;28;20305;-55
2023/08/27 02:48:07;;;;;;;;;;;24.10;63.40;;;;;;5094463;28;19908;-56
2023/08/27 02:50:32;;;;;;;;;;;24.10;63.40;;;;;;5094271;28;19927;-56
2023/08/27 02:52:58;;;;;;;;;;;24.10;63.30;;;;;;5092505;28;19916;-56
2023/08/27 02:55:25;;;;;;;;;;;24.10;63.30;;;;;;5084385;28;19908;-55
2023/08/27 02:57:50;;;;;;;;;;;24.10;63.30;;;;;;5086299;28;19919;-56
2023/08/27 03:00:16;;;;;;;;;;;24.10;63.30;;;;;;5093874;28;19909;-56
2023/08/27 03:02:41;;;;;;;;;;;24.10;63.30;;;;;;5092598;28;19916;-56
2023/08/27 03:05:07;;;;;;;;;;;24.10;63.30;;;;;;5094172;28;19934;-56
2023/08/27 03:07:32;;;;;;;;;;;24.10;63.30;;;;;;5094078;28;19958;-56
2023/08/27 03:09:58;;;;;;;;;;;24.00;63.20;;;;;;5093694;28;20010;-56
2023/08/27 03:12:23;;;;;;;;;;;24.00;63.20;;;;;;5091459;28;19912;-56
2023/08/27 03:14:49;;;;;;;;;;;24.00;63.20;;;;;;5093756;28;19915;-56
2023/08/27 03:17:14;;;;;;;;;;;24.00;63.20;;;;;;5093027;28;20322;-56
2023/08/27 03:19:40;;;;;;;;;;;24.00;63.20;;;;;;5093789;28;19908;-56
2023/08/27 03:22:06;;;;;;;;;;;24.00;63.20;;;;;;5091791;28;20283;-56
2023/08/27 03:24:32;;;;;;;;;;;24.00;63.20;;;;;;5091252;28;19949;-56
2023/08/27 03:26:57;;;;;;;;;;;24.00;63.10;;;;;;5076473;28;19983;-55
2023/08/27 03:29:23;;;;;;;;;;;24.00;63.10;;;;;;5093323;28;20268;-56
2023/08/27 03:31:49;;;;;;;;;;;24.00;63.00;;;;;;5093610;28;19923;-55
2023/08/27 03:34:14;;;;;;;;;;;24.00;63.00;;;;;;5091961;28;20016;-56
2023/08/27 03:36:40;;;;;;;;;;;24.00;63.00;;;;;;5093374;28;19957;-55
2023/08/27 03:39:05;;;;;;;;;;;24.00;62.90;;;;;;5093288;28;19908;-56
2023/08/27 03:41:31;;;;;;;;;;;24.00;63.00;;;;;;5093383;28;19915;-56
2023/08/27 03:43:56;;;;;;;;;;;24.00;63.00;;;;;;5088518;28;19957;-56
2023/08/27 03:46:22;;;;;;;;;;;24.00;62.90;;;;;;5093146;28;19916;-56
2023/08/27 03:48:47;;;;;;;;;;;24.00;62.90;;;;;;5093171;28;19909;-56
2023/08/27 03:51:13;;;;;;;;;;;23.90;62.90;;;;;;5093066;28;19912;-56
2023/08/27 03:53:38;;;;;;;;;;;24.00;62.90;;;;;;5075699;28;19923;-55
2023/08/27 03:56:04;;;;;;;;;;;24.00;62.90;;;;;;5072421;28;19948;-56
2023/08/27 03:58:29;;;;;;;;;;;23.90;62.80;;;;;;5084730;28;19912;-56
2023/08/27 04:00:54;;;;;;;;;;;23.90;62.80;;;;;;5090391;28;19916;-56
2023/08/27 04:03:20;;;;;;;;;;;23.90;63.00;;;;;;5093138;28;19995;-56
2023/08/27 04:05:49;;;;;;;;;;;23.90;62.90;;;;;;5092982;28;20287;-56
2023/08/27 04:08:17;;;;;;;;;;;23.90;62.80;;;;;;5093058;28;19908;-56
2023/08/27 04:10:52;;;;;;;;;;;23.80;62.80;;;;;;5090172;28;19931;-56
2023/08/27 04:13:18;;;;;;;;;;;23.90;62.90;;;;;;5091015;28;19912;-56
2023/08/27 04:15:45;;;;;;;;;;;23.90;62.80;;;;;;5092989;28;19919;-56
2023/08/27 04:18:10;;;;;;;;;;;23.90;62.80;;;;;;5093222;28;19909;-56
2023/08/27 04:20:36;;;;;;;;;;;23.90;62.70;;;;;;5090882;28;19955;-56
2023/08/27 04:23:01;;;;;;;;;;;23.80;62.70;;;;;;5091863;28;19912;-55
2023/08/27 04:25:27;;;;;;;;;;;23.80;62.80;;;;;;5082861;28;20345;-56
2023/08/27 04:27:52;;;;;;;;;;;23.80;62.80;;;;;;5077806;28;19919;-55
2023/08/27 04:30:18;;;;;;;;;;;23.80;62.80;;;;;;5096756;28;19959;-56
2023/08/27 04:32:43;;;;;;;;;;;23.80;62.70;;;;;;5094312;28;21309;-56
2023/08/27 04:35:09;;;;;;;;;;;23.80;62.60;;;;;;5096831;28;19924;-56
2023/08/27 04:37:35;;;;;;;;;;;23.80;62.80;;;;;;5096684;28;19915;-56
2023/08/27 04:40:02;;;;;;;;;;;23.80;62.70;;;;;;5095430;28;19920;-55
2023/08/27 04:42:27;;;;;;;;;;;23.80;62.80;;;;;;5096330;28;19962;-55
2023/08/27 04:44:53;;;;;;;;;;;23.80;62.80;;;;;;5094391;28;20359;-56
2023/08/27 04:47:18;;;;;;;;;;;23.80;62.70;;;;;;5096920;28;20364;-56
2023/08/27 04:49:44;;;;;;;;;;;23.80;62.70;;;;;;5092462;28;20268;-56
2023/08/27 04:52:10;;;;;;;;;;;23.80;62.80;;;;;;5096455;28;19908;-56
2023/08/27 04:54:35;;;;;;;;;;;23.80;62.70;;;;;;5093659;28;19912;-55
2023/08/27 04:57:02;;;;;;;;;;;23.80;62.70;;;;;;5076120;28;20003;-56
2023/08/27 04:59:27;;;;;;;;;;;23.80;62.70;;;;;;5082863;28;20003;-55
2023/08/27 05:01:54;;;;;;;;;;;23.80;62.60;;;;;;5094820;28;20379;-56
2023/08/27 05:04:20;;;;;;;;;;;23.80;62.50;;;;;;5096268;28;19954;-56
2023/08/27 05:06:45;;;;;;;;;;;23.80;62.30;;;;;;5096219;28;19912;-56
2023/08/27 05:09:11;;;;;;;;;;;23.80;62.20;;;;;;5095958;28;19965;-56
2023/08/27 05:11:36;;;;;;;;;;;23.80;62.20;;;;;;5094615;28;20008;-56
2023/08/27 05:14:01;;;;;;;;;;;23.70;62.00;;;;;;5076905;28;19939;-56
2023/08/27 05:16:28;;;;;;;;;;;23.70;62.10;;;;;;5091399;28;20002;-56
2023/08/27 05:18:54;;;;;;;;;;;23.70;62.20;;;;;;5075735;28;19909;-55
2023/08/27 05:21:19;;;;;;;;;;;23.70;62.10;;;;;;5084444;28;19920;-55
2023/08/27 05:23:45;;;;;;;;;;;23.70;62.10;;;;;;5093144;28;19912;-56
2023/08/27 05:26:10;;;;;;;;;;;23.70;62.00;;;;;;5079644;28;19909;-56
2023/08/27 05:28:36;;;;;;;;;;;23.70;61.90;;;;;;5080801;28;19912;-55
2023/08/27 05:31:03;;;;;;;;;;;23.60;61.90;;;;;;5094077;28;19916;-56
2023/08/27 05:33:29;;;;;;;;;;;23.60;61.90;;;;;;5094358;28;19912;-56
2023/08/27 05:35:54;;;;;;;;;;;23.60;61.90;;;;;;5084699;28;19919;-55
2023/08/27 05:38:20;;;;;;;;;;;23.60;61.90;;;;;;5093863;28;20067;-56
2023/08/27 05:40:46;;;;;;;;;;;23.60;62.00;;;;;;5094211;28;20364;-55
2023/08/27 05:43:11;;;;;;;;;;;23.60;62.00;;;;;;5092982;28;20086;-56
2023/08/27 05:45:36;;;;;;;;;;;23.70;62.00;;;;;;5095533;28;19916;-55
2023/08/27 05:48:02;;;;;;;;;;;23.60;61.90;;;;;;5095272;28;19908;-56
2023/08/27 05:50:28;;;;;;;;;;;23.60;61.90;;;;;;5095120;28;19963;-54
2023/08/27 05:52:53;;;;;;;;;;;23.60;61.90;;;;;;5090439;28;19915;-56
2023/08/27 05:55:18;;;;;;;;;;;23.60;61.90;;;;;;5088433;28;19962;-55
2023/08/27 05:57:44;;;;;;;;;;;23.60;62.00;;;;;;5095395;28;19991;-56
2023/08/27 06:00:10;;;;;;;;;;;23.60;62.00;;;;;;5089808;28;20319;-55
2023/08/27 06:02:35;;;;;;;;;;;23.60;62.00;;;;;;5095028;28;19990;-56
2023/08/27 06:05:01;;;;;;;;;;;23.60;62.10;;;;;;5094984;28;19924;-56
2023/08/27 06:07:26;;;;;;;;;;;23.60;62.10;;;;;;5094962;28;19909;-56
2023/08/27 06:09:51;;;;;;;;;;;23.60;62.10;;;;;;5092200;28;20324;-55
2023/08/27 06:12:17;;;;;;;;;;;23.60;62.20;;;;;;5094839;28;20257;-56
2023/08/27 06:14:42;;;;;;;;;;;23.60;62.20;;;;;;5092820;28;19935;-56
2023/08/27 06:17:08;;;;;;;;;;;23.60;62.20;;;;;;5094974;28;19934;-55
2023/08/27 06:19:33;;;;;;;;;;;23.60;62.10;;;;;;5092426;28;19913;-56
2023/08/27 06:21:59;;;;;;;;;;;23.60;62.20;;;;;;5094603;28;20007;-56
2023/08/27 06:24:24;;;;;;;;;;;23.60;62.20;;;;;;5093237;28;19912;-55
2023/08/27 06:26:50;;;;;;;;;;;23.50;62.20;;;;;;5074363;28;19915;-55
2023/08/27 06:29:15;;;;;;;;;;;23.50;62.20;;;;;;5079067;28;20426;-56
2023/08/27 06:31:40;;;;;;;;;;;23.60;62.30;;;;;;5094540;28;19923;-55
2023/08/27 06:34:06;;;;;;;;;;;23.60;62.20;;;;;;5094457;28;19909;-56
2023/08/27 06:36:31;;;;;;;;;;;23.50;62.10;;;;;;5094708;28;20046;-56
2023/08/27 06:38:57;;;;;;;;;;;23.50;62.20;;;;;;5091074;28;19954;-56
2023/08/27 06:41:22;;;;;;;;;;;23.50;62.20;;;;;;5089193;28;19952;-56
2023/08/27 06:43:48;;;;;;;;;;;23.50;62.20;;;;;;5092577;28;20066;-56
2023/08/27 06:46:14;;;;;;;;;;;23.50;62.10;;;;;;5094281;28;20031;-55
2023/08/27 06:48:39;;;;;;;;;;;23.50;62.00;;;;;;5094099;28;20403;-56
2023/08/27 06:51:05;;;;;;;;;;;23.50;62.00;;;;;;5093131;28;20095;-56
2023/08/27 06:53:30;;;;;;;;;;;23.50;62.00;;;;;;5092761;28;19912;-55
2023/08/27 06:55:55;;;;;;;;;;;23.50;61.90;;;;;;5078636;28;19956;-55
2023/08/27 06:58:21;;;;;;;;;;;23.50;61.80;;;;;;5077561;28;20367;-56
2023/08/27 07:00:46;;;;;;;;;;;23.50;61.80;;;;;;5092639;28;19916;-56
2023/08/27 07:03:13;;;;;;;;;;;23.50;61.60;;;;;;5093989;28;19909;-56
2023/08/27 07:05:38;;;;;;;;;;;23.50;61.40;;;;;;5092558;28;20122;-56
2023/08/27 07:08:04;;;;;;;;;;;23.40;61.20;;;;;;5093932;28;20360;-56
2023/08/27 07:10:29;;;;;;;;;;;23.40;61.10;;;;;;5092510;28;19912;-55
2023/08/27 07:12:55;;;;;;;;;;;23.40;61.20;;;;;;5092187;28;19915;-55
2023/08/27 07:15:20;;;;;;;;;;;23.40;61.20;;;;;;5092756;28;19909;-55
2023/08/27 07:17:46;;;;;;;;;;;23.40;61.20;;;;;;5093752;28;19908;-56
2023/08/27 07:20:12;;;;;;;;;;;23.40;61.20;;;;;;5093587;28;19915;-56
2023/08/27 07:22:37;;;;;;;;;;;23.40;61.20;;;;;;5093601;28;19935;-56
2023/08/27 07:25:03;;;;;;;;;;;23.40;61.20;;;;;;5085028;28;19913;-55
2023/08/27 07:27:29;;;;;;;;;;;23.40;61.30;;;;;;5073264;28;19912;-56
2023/08/27 07:29:54;;;;;;;;;;;23.40;61.10;;;;;;5086321;28;19920;-56
2023/08/27 07:32:20;;;;;;;;;;;23.40;61.00;;;;;;5093460;28;19991;-55
2023/08/27 07:34:45;;;;;;;;;;;23.40;60.90;;;;;;5093016;28;20503;-56
2023/08/27 07:37:11;;;;;;;;;;;23.40;60.90;;;;;;5092552;28;19908;-56
2023/08/27 07:39:36;;;;;;;;;;;23.40;60.90;;;;;;5093291;28;19915;-56
2023/08/27 07:42:02;;;;;;;;;;;23.40;60.90;;;;;;5093195;28;19908;-56
2023/08/27 07:44:28;;;;;;;;;;;23.40;60.80;;;;;;5091026;28;19913;-56
2023/08/27 07:46:53;;;;;;;;;;;23.40;60.90;;;;;;5093200;28;19919;-56
2023/08/27 07:49:19;;;;;;;;;;;23.40;60.90;;;;;;5093203;28;19973;-56
2023/08/27 07:51:45;;;;;;;;;;;23.40;61.00;;;;;;5093111;28;19927;-56
2023/08/27 07:54:11;;;;;;;;;;;23.40;61.00;;;;;;5091711;28;19913;-56
2023/08/27 07:56:36;;;;;;;;;;;23.40;60.90;;;;;;5076172;28;19935;-56
2023/08/27 07:59:02;;;;;;;;;;;23.40;61.00;;;;;;5090717;28;20328;-56
2023/08/27 08:01:27;;;;;;;;;;;23.30;61.00;;;;;;5093086;28;20012;-56
2023/08/27 08:03:53;;;;;;;;;;;23.30;61.10;;;;;;5093087;28;19908;-57
2023/08/27 08:06:18;;;;;;;;;;;23.30;61.10;;;;;;5089354;28;19995;-56
2023/08/27 08:08:44;;;;;;;;;;;23.30;61.20;;;;;;5072907;28;19962;-56
2023/08/27 08:11:09;;;;;;;;;;;23.30;61.20;;;;;;5072691;28;20296;-56
2023/08/27 08:13:36;;;;;;;;;;;23.30;61.20;;;;;;5072679;28;20395;-56
2023/08/27 08:16:02;;;;;;;;;;;23.40;61.40;;;;;;5089671;28;20021;-56
2023/08/27 08:18:28;;;;;;;;;;;23.30;61.20;;;;;;5092940;28;19991;-56
2023/08/27 08:20:53;;;;;;;;;;;23.40;61.40;;;;;;5092931;28;20368;-55
2023/08/27 08:23:19;;;;;;;;;;;23.40;61.50;;;;;;5093172;28;19916;-56
2023/08/27 08:25:47;;;;;;;;;;;23.40;62.30;;;;;;5078079;28;20300;-55
2023/08/27 08:28:13;;;;;;;;;;;23.40;61.50;;;;;;5091722;28;19966;-56
2023/08/27 08:30:38;;;;;;;;;;;23.30;61.50;;;;;;5090489;28;19920;-56
2023/08/27 08:33:04;;;;;;;;;;;23.30;61.80;;;;;;5091527;28;19908;-56
2023/08/27 08:35:29;;;;;;;;;;;23.30;61.80;;;;;;5092878;28;19915;-55
2023/08/27 08:37:55;;;;;;;;;;;23.30;61.80;;;;;;5089592;28;19957;-55
2023/08/27 08:40:20;;;;;;;;;;;23.40;62.00;;;;;;5092786;28;20336;-56
2023/08/27 08:42:49;;;;;;;;;;;23.30;62.60;;;;;;5092745;28;20288;-55
2023/08/27 08:45:32;;;;;;;;;;;23.40;62.10;;;;;;5090195;28;19939;-55
2023/08/27 08:47:58;;;;;;;;;;;23.30;62.00;;;;;;5092574;28;20070;-56
2023/08/27 08:50:25;;;;;;;;;;;23.30;62.00;;;;;;5091233;28;19963;-56
2023/08/27 08:52:51;;;;;;;;;;;23.40;62.10;;;;;;5091208;28;19920;-56
2023/08/27 08:55:16;;;;;;;;;;;23.40;62.20;;;;;;5084000;28;20365;-56
2023/08/27 08:57:47;;;;;;;;;;;23.40;62.30;;;;;;5071321;28;19910;-56
2023/08/27 09:00:13;;;;;;;;;;;23.40;62.40;;;;;;5073818;28;20011;-55
2023/08/27 09:02:38;;;;;;;;;;;23.40;62.50;;;;;;5092468;28;20010;-56
2023/08/27 09:05:04;;;;;;;;;;;23.40;62.60;;;;;;5092781;28;20269;-56
2023/08/27 09:07:30;;;;;;;;;;;23.40;62.50;;;;;;5091315;28;19944;-56
2023/08/27 09:09:56;;;;;;;;;;;23.50;62.60;;;;;;5092407;28;19915;-56
2023/08/27 09:12:21;;;;;;;;;;;23.40;62.50;;;;;;5090122;28;19918;-56
2023/08/27 09:14:46;;;;;;;;;;;23.40;62.50;;;;;;5092986;28;19915;-56
2023/08/27 09:17:16;;;;;;;;;;;23.50;62.60;;;;;;5094228;28;19912;-56
2023/08/27 09:19:43;;;;;;;;;;;23.40;62.60;;;;;;5095949;28;19935;-56
2023/08/27 09:22:09;;;;;;;;;;;23.40;62.70;;;;;;5093499;28;19965;-56
2023/08/27 09:24:34;;;;;;;;;;;23.40;62.70;;;;;;5093142;28;20329;-55
2023/08/27 09:27:00;;;;;;;;;;;23.40;62.70;;;;;;5075560;28;20455;-55
2023/08/27 09:29:25;;;;;;;;;;;23.40;62.70;;;;;;5075493;28;20386;-56
2023/08/27 09:31:51;;;;;;;;;;;23.40;62.80;;;;;;5087103;28;19923;-56
2023/08/27 09:34:18;;;;;;;;;;;23.40;62.80;;;;;;5093433;28;20392;-56
2023/08/27 09:36:44;;;;;;;;;;;23.40;62.70;;;;;;5094413;28;19908;-55
2023/08/27 09:39:10;;;;;;;;;;;23.40;62.60;;;;;;5095559;28;19912;-55
2023/08/27 09:41:36;;;;;;;;;;;23.40;62.60;;;;;;5081358;28;19913;-56
2023/08/27 09:44:01;;;;;;;;;;;23.40;62.70;;;;;;5075215;28;19908;-56
2023/08/27 09:46:27;;;;;;;;;;;23.40;62.80;;;;;;5083990;28;19912;-55
2023/08/27 09:48:56;;;;;;;;;;;23.40;62.90;;;;;;5095396;28;20370;-56
2023/08/27 09:51:22;;;;;;;;;;;23.40;62.90;;;;;;5095349;28;20433;-56
2023/08/27 09:53:47;;;;;;;;;;;23.40;63.00;;;;;;5090924;28;19912;-56
2023/08/27 09:56:13;;;;;;;;;;;23.40;63.10;;;;;;5091825;28;19912;-56
2023/08/27 09:58:38;;;;;;;;;;;23.40;63.00;;;;;;5092598;28;19981;-57
2023/08/27 10:01:04;;;;;;;;;;;23.50;63.10;;;;;;5088619;28;20061;-56
2023/08/27 10:03:29;;;;;;;;;;;23.50;63.00;;;;;;5092946;28;19916;-56
2023/08/27 10:05:55;;;;;;;;;;;23.50;63.00;;;;;;5095409;28;19943;-55
2023/08/27 10:08:20;;;;;;;;;;;23.50;63.10;;;;;;5087896;28;20003;-56
2023/08/27 10:10:46;;;;;;;;;;;23.50;63.10;;;;;;5082282;28;19916;-56
2023/08/27 10:13:13;;;;;;;;;;;23.50;63.10;;;;;;5094861;28;19912;-56
2023/08/27 10:15:38;;;;;;;;;;;23.50;63.20;;;;;;5092639;28;19999;-55
2023/08/27 10:18:04;;;;;;;;;;;23.50;63.20;;;;;;5094950;28;19950;-55
2023/08/27 10:20:30;;;;;;;;;;;23.50;63.40;;;;;;5094371;28;19959;-56
2023/08/27 10:22:55;;;;;;;;;;;23.50;63.50;;;;;;5092191;28;19915;-56
2023/08/27 10:25:20;;;;;;;;;;;23.50;63.50;;;;;;5085331;28;19961;-56
2023/08/27 10:27:47;;;;;;;;;;;23.50;63.50;;;;;;5071509;28;19967;-56
2023/08/27 10:30:12;;;;;;;;;;;23.50;63.40;;;;;;5087608;28;20002;-56
2023/08/27 10:32:38;;;;;;;;;;;23.50;63.50;;;;;;5073124;28;20351;-55
2023/08/27 10:35:05;;;;;;;;;;;23.50;63.50;;;;;;5074285;28;19909;-55
2023/08/27 10:37:30;;;;;;;;;;;23.50;63.40;;;;;;5073524;28;19908;-56
2023/08/27 10:39:57;;;;;;;;;;;23.50;63.40;;;;;;5091136;28;19923;-56
2023/08/27 10:42:29;;;;;;;;;;;23.50;63.50;;;;;;5093401;28;19948;-55
2023/08/27 10:45:10;;;;;;;;;;;23.50;63.60;;;;;;5089327;28;20236;-56
2023/08/27 10:47:35;;;;;;;;;;;23.60;63.80;;;;;;5071157;28;19913;-55
2023/08/27 10:50:01;;;;;;;;;;;23.60;63.70;;;;;;5072010;28;19970;-56
2023/08/27 10:52:27;;;;;;;;;;;23.60;63.60;;;;;;5073882;28;19935;-56
2023/08/27 10:54:59;;;;;;;;;;;23.60;63.60;;;;;;5083318;28;19913;-56
2023/08/27 10:57:24;;;;;;;;;;;23.60;63.60;;;;;;5073842;28;19908;-56
2023/08/27 10:59:52;;;;;;;;;;;23.50;63.50;;;;;;5072445;28;19958;-55
2023/08/27 11:02:17;;;;;;;;;;;23.60;63.50;;;;;;5091891;28;19993;-56
2023/08/27 11:04:43;;;;;;;;;;;23.50;63.40;;;;;;5093927;28;19978;-56
2023/08/27 11:07:10;;;;;;;;;;;23.60;63.50;;;;;;5091130;28;20107;-56
2023/08/27 11:09:43;;;;;;;;;;;23.60;63.50;;;;;;5092988;28;19950;-55
2023/08/27 11:12:18;;;;;;;;;;;23.60;63.50;;;;;;5093755;28;19912;-55
2023/08/27 11:14:44;;;;;;;;;;;23.60;63.50;;;;;;5092562;28;19908;-55
2023/08/27 11:17:09;;;;;;;;;;;23.60;63.60;;;;;;5084851;28;20262;-56
2023/08/27 11:19:35;;;;;;;;;;;23.60;63.60;;;;;;5083621;28;21564;-55
2023/08/27 11:22:05;;;;;;;;;;;23.60;63.50;;;;;;5073425;28;19954;-56
2023/08/27 11:24:30;;;;;;;;;;;23.60;63.40;;;;;;5072779;28;19909;-56
2023/08/27 11:26:55;;;;;;;;;;;23.60;63.40;;;;;;5073393;28;19916;-55
2023/08/27 11:29:22;;;;;;;;;;;23.60;63.30;;;;;;5087064;28;20011;-55
2023/08/27 11:31:47;;;;;;;;;;;23.60;64.10;;;;;;5091402;28;20019;-56
2023/08/27 11:34:16;;;;;;;;;;;23.60;64.00;;;;;;5093377;28;20348;-56
2023/08/27 11:36:42;;;;;;;;;;;23.60;63.20;;;;;;5092917;28;19962;-56
2023/08/27 11:39:11;;;;;;;;;;;23.60;63.10;;;;;;5093403;28;19908;-56
2023/08/27 11:41:37;;;;;;;;;;;23.60;62.90;;;;;;5092050;28;19912;-56
2023/08/27 11:44:06;;;;;;;;;;;23.60;62.60;;;;;;5093470;28;19915;-56
2023/08/27 11:46:32;;;;;;;;;;;23.50;62.40;;;;;;5091020;28;20006;-56
2023/08/27 11:48:57;;;;;;;;;;;23.60;62.50;;;;;;5092994;28;20016;-56
2023/08/27 11:51:23;;;;;;;;;;;23.50;62.30;;;;;;5093217;28;20010;-56
2023/08/27 11:53:50;;;;;;;;;;;23.60;62.40;;;;;;5090484;28;19912;-56
2023/08/27 11:56:15;;;;;;;;;;;23.60;62.40;;;;;;5076401;28;19915;-56
2023/08/27 11:58:41;;;;;;;;;;;23.60;62.30;;;;;;5071754;28;19909;-56
2023/08/27 12:01:07;;;;;;;;;;;23.60;62.30;;;;;;5074825;28;19916;-56
2023/08/27 12:03:33;;;;;;;;;;;23.60;62.20;;;;;;5093056;28;20276;-56
2023/08/27 12:05:58;;;;;;;;;;;23.60;62.30;;;;;;5093012;28;19908;-56
2023/08/27 12:08:24;;;;;;;;;;;23.60;62.20;;;;;;5091667;28;20432;-56
2023/08/27 12:10:49;;;;;;;;;;;23.60;62.10;;;;;;5091885;28;20329;-55
2023/08/27 12:13:15;;;;;;;;;;;23.60;62.20;;;;;;5091629;28;19962;-55
2023/08/27 12:15:40;;;;;;;;;;;23.60;62.20;;;;;;5093265;28;20294;-55
2023/08/27 12:18:06;;;;;;;;;;;23.60;62.30;;;;;;5091113;28;19979;-56
2023/08/27 12:20:32;;;;;;;;;;;23.50;62.30;;;;;;5092981;28;20008;-56
2023/08/27 12:22:58;;;;;;;;;;;23.50;62.30;;;;;;5090938;28;19912;-56
2023/08/27 12:25:24;;;;;;;;;;;23.50;62.30;;;;;;5089289;28;19912;-56
2023/08/27 12:27:49;;;;;;;;;;;23.50;62.30;;;;;;5091651;28;20489;-56
2023/08/27 12:30:15;;;;;;;;;;;23.50;62.20;;;;;;5092649;28;19920;-55
2023/08/27 12:32:40;;;;;;;;;;;23.50;62.20;;;;;;5090853;28;19916;-56
2023/08/27 12:35:06;;;;;;;;;;;23.50;62.30;;;;;;5092768;28;19908;-56
2023/08/27 12:37:31;;;;;;;;;;;23.50;62.30;;;;;;5091828;28;19955;-56
2023/08/27 12:39:57;;;;;;;;;;;23.50;62.30;;;;;;5092765;28;19970;-55
2023/08/27 12:42:23;;;;;;;;;;;23.50;62.30;;;;;;5090311;28;19912;-56
2023/08/27 12:44:48;;;;;;;;;;;23.50;62.30;;;;;;5091800;28;19912;-56
2023/08/27 12:47:14;;;;;;;;;;;23.60;62.40;;;;;;5090366;28;19912;-55
2023/08/27 12:49:40;;;;;;;;;;;23.60;62.30;;;;;;5094558;28;20392;-56
2023/08/27 12:52:06;;;;;;;;;;;23.60;62.30;;;;;;5096444;28;20015;-56
2023/08/27 12:54:31;;;;;;;;;;;23.60;62.30;;;;;;5083186;28;19956;-56
2023/08/27 12:56:57;;;;;;;;;;;23.60;62.30;;;;;;5076148;28;20269;-55
2023/08/27 12:59:24;;;;;;;;;;;23.60;62.40;;;;;;5076134;28;19908;-56
2023/08/27 13:01:49;;;;;;;;;;;23.60;62.50;;;;;;5075490;28;20376;-56
2023/08/27 13:04:15;;;;;;;;;;;23.60;62.50;;;;;;5096272;28;19961;-55
2023/08/27 13:06:44;;;;;;;;;;;23.60;62.50;;;;;;5096275;28;19908;-56
2023/08/27 13:09:10;;;;;;;;;;;23.60;62.50;;;;;;5096060;28;19919;-56
2023/08/27 13:11:35;;;;;;;;;;;23.60;62.50;;;;;;5094881;28;19951;-56
2023/08/27 13:14:01;;;;;;;;;;;23.60;62.50;;;;;;5090906;28;19943;-56
2023/08/27 13:16:29;;;;;;;;;;;23.70;62.60;;;;;;5096367;28;19912;-56
2023/08/27 13:18:55;;;;;;;;;;;23.70;62.60;;;;;;5093706;28;19940;-55
2023/08/27 13:21:21;;;;;;;;;;;23.70;62.60;;;;;;5095906;28;19958;-55
2023/08/27 13:23:46;;;;;;;;;;;23.70;62.60;;;;;;5094175;28;19913;-56
2023/08/27 13:26:12;;;;;;;;;;;23.70;62.60;;;;;;5079490;28;20003;-56
2023/08/27 13:28:37;;;;;;;;;;;23.70;62.50;;;;;;5090097;28;19908;-56
2023/08/27 13:31:03;;;;;;;;;;;23.70;62.50;;;;;;5095614;28;19916;-55
2023/08/27 13:33:29;;;;;;;;;;;23.70;62.60;;;;;;5093388;28;19915;-55
2023/08/27 13:35:54;;;;;;;;;;;23.60;62.40;;;;;;5095759;28;19912;-56
2023/08/27 13:38:20;;;;;;;;;;;23.70;62.50;;;;;;5093175;28;19919;-56
2023/08/27 13:40:45;;;;;;;;;;;23.70;62.50;;;;;;5094576;28;19912;-56
2023/08/27 13:43:11;;;;;;;;;;;23.70;62.50;;;;;;5095546;28;19915;-56
2023/08/27 13:45:36;;;;;;;;;;;23.70;62.40;;;;;;5095433;28;20282;-56
2023/08/27 13:48:02;;;;;;;;;;;23.70;62.50;;;;;;5092828;28;19908;-56
2023/08/27 13:50:27;;;;;;;;;;;23.70;62.50;;;;;;5095150;28;20022;-56
2023/08/27 13:52:53;;;;;;;;;;;23.70;62.50;;;;;;5094054;28;20377;-55
2023/08/27 13:55:18;;;;;;;;;;;23.70;62.50;;;;;;5086474;28;20373;-56
2023/08/27 13:57:44;;;;;;;;;;;23.70;62.50;;;;;;5075672;28;20018;-56
2023/08/27 14:00:10;;;;;;;;;;;23.70;62.50;;;;;;5093487;28;20291;-55
2023/08/27 14:02:36;;;;;;;;;;;23.70;62.60;;;;;;5093855;28;19994;-56
2023/08/27 14:05:01;;;;;;;;;;;23.80;62.60;;;;;;5093166;28;20452;-55
2023/08/27 14:07:27;;;;;;;;;;;23.80;62.60;;;;;;5095051;28;19908;-56